Time;durP1;ratioP1;P1;durP2;ratioP2;P2;SDS_P1;SDS_P2;PMS_P1;PMS_P2;Temp;Humidity;BMP_temperature;BMP_pressure;BME280_temperature;BME280_humidity;BME280_pressure;Samples;Min_cycle;Max_cycle;Signal;HPM_P1;HPM_P2
2022/12/09 00:01:21;;;;;;;159.00;116.50;;;;;;;2.05;100.00;98248.31;105929;1292;59859;-73
2022/12/09 00:03:49;;;;;;;160.10;115.40;;;;;;;2.02;100.00;98241.80;105919;1295;59696;-73
2022/12/09 00:06:20;;;;;;;148.00;109.00;;;;;;;2.01;100.00;98240.29;105926;1291;66656;-72
2022/12/09 00:08:47;;;;;;;140.90;104.80;;;;;;;2.01;100.00;98245.52;105937;1288;60038;-73
2022/12/09 00:11:13;;;;;;;150.20;109.90;;;;;;;2.02;100.00;98242.00;105927;1290;59768;-72
2022/12/09 00:13:39;;;;;;;154.90;110.50;;;;;;;2.02;100.00;98244.27;105933;1290;59682;-72
2022/12/09 00:16:11;;;;;;;143.80;108.00;;;;;;;2.01;100.00;98246.23;105904;1292;59544;-72
2022/12/09 00:18:38;;;;;;;146.90;107.80;;;;;;;2.01;100.00;98249.38;105591;1295;67660;-72
2022/12/09 00:21:11;;;;;;;154.50;111.70;;;;;;;2.01;100.00;98247.81;105920;1289;61119;-73
2022/12/09 00:23:37;;;;;;;158.20;112.60;;;;;;;2.00;100.00;98247.32;105947;1291;62720;-73
2022/12/09 00:26:04;;;;;;;163.40;118.90;;;;;;;2.02;100.00;98249.52;105918;1287;60092;-73
2022/12/09 00:28:30;;;;;;;159.10;115.20;;;;;;;2.05;100.00;98250.45;105932;1291;59918;-73
2022/12/09 00:30:59;;;;;;;166.30;121.60;;;;;;;2.07;100.00;98253.67;105923;1292;60029;-73
2022/12/09 00:33:25;;;;;;;173.30;125.60;;;;;;;2.07;100.00;98254.91;105729;1290;61225;-73
2022/12/09 00:35:53;;;;;;;186.40;139.30;;;;;;;2.07;100.00;98259.10;105729;1295;59941;-74
2022/12/09 00:38:19;;;;;;;183.50;134.40;;;;;;;2.09;100.00;98260.27;105714;1298;60080;-73
2022/12/09 00:40:45;;;;;;;166.40;124.80;;;;;;;2.10;100.00;98261.07;105765;1295;59989;-75
2022/12/09 00:43:11;;;;;;;161.30;121.30;;;;;;;2.12;100.00;98264.48;105725;1295;59709;-72
2022/12/09 00:45:37;;;;;;;160.50;120.30;;;;;;;2.13;100.00;98266.52;105741;1294;59778;-74
2022/12/09 00:48:03;;;;;;;157.50;117.70;;;;;;;2.15;100.00;98270.66;105701;1295;59770;-75
2022/12/09 00:50:29;;;;;;;158.20;113.30;;;;;;;2.13;100.00;98268.62;105733;1295;59861;-74
2022/12/09 00:52:55;;;;;;;148.70;113.00;;;;;;;2.14;100.00;98273.17;105714;1291;59847;-73
2022/12/09 00:55:22;;;;;;;133.30;96.10;;;;;;;2.15;100.00;98277.15;105750;1294;59844;-74
2022/12/09 00:57:48;;;;;;;132.30;96.50;;;;;;;2.15;100.00;98283.44;105715;1296;59914;-74
2022/12/09 01:00:14;;;;;;;133.30;98.70;;;;;;;2.16;100.00;98284.48;105746;1287;59671;-74
2022/12/09 01:02:40;;;;;;;131.80;99.30;;;;;;;2.16;100.00;98283.23;105636;1296;59773;-74
2022/12/09 01:05:06;;;;;;;133.60;98.00;;;;;;;2.16;100.00;98281.83;105824;1296;59712;-74
2022/12/09 01:07:32;;;;;;;131.60;98.50;;;;;;;2.16;100.00;98278.88;105916;1292;61272;-73
2022/12/09 01:09:58;;;;;;;128.00;94.30;;;;;;;2.14;100.00;98272.80;105929;1287;60788;-74
2022/12/09 01:12:24;;;;;;;128.00;95.30;;;;;;;2.14;100.00;98276.34;105907;1289;59699;-72
2022/12/09 01:14:50;;;;;;;128.60;95.20;;;;;;;2.14;100.00;98273.34;105937;1297;59674;-74
2022/12/09 01:17:16;;;;;;;120.50;90.80;;;;;;;2.14;100.00;98273.34;105938;1287;60106;-73
2022/12/09 01:19:42;;;;;;;122.20;89.60;;;;;;;2.15;100.00;98273.64;105929;1296;59825;-75
2022/12/09 01:22:08;;;;;;;114.50;84.90;;;;;;;2.15;100.00;98273.13;105936;1287;59783;-74
2022/12/09 01:24:34;;;;;;;113.40;83.00;;;;;;;2.16;100.00;98275.34;105941;1289;59611;-75
2022/12/09 01:27:00;;;;;;;106.60;79.30;;;;;;;2.17;100.00;98279.68;105974;1292;59544;-75
2022/12/09 01:29:26;;;;;;;102.40;74.60;;;;;;;2.17;100.00;98277.41;105935;1295;60893;-74
2022/12/09 01:31:53;;;;;;;101.60;74.80;;;;;;;2.16;100.00;98280.62;105889;1297;59838;-74
2022/12/09 01:34:19;;;;;;;96.20;68.50;;;;;;;2.15;100.00;98277.86;105749;1289;59790;-75
2022/12/09 01:36:47;;;;;;;87.60;66.00;;;;;;;2.14;100.00;98277.35;105949;1290;59625;-74
2022/12/09 01:39:15;;;;;;;86.80;62.40;;;;;;;2.14;100.00;98276.11;105748;1292;66982;-75
2022/12/09 01:41:41;;;;;;;93.00;66.70;;;;;;;2.14;100.00;98273.49;105931;1295;61131;-74
2022/12/09 01:44:24;;;;;;;95.30;69.20;;;;;;;2.14;100.00;98268.10;105917;1289;65255;-74
2022/12/09 01:46:55;;;;;;;99.90;74.60;;;;;;;2.13;100.00;98264.81;105916;1276;59760;-74
2022/12/09 01:49:29;;;;;;;104.70;76.30;;;;;;;2.12;100.00;98266.23;105905;1290;60075;-73
2022/12/09 01:52:22;;;;;;;103.90;77.70;;;;;;;2.11;100.00;98260.66;105927;1292;66822;-74
2022/12/09 01:54:51;;;;;;;103.90;75.40;;;;;;;2.11;100.00;98258.41;105294;1299;61535;-74
2022/12/09 01:57:18;;;;;;;104.80;76.80;;;;;;;2.11;100.00;98254.57;105278;1305;64536;-73
2022/12/09 01:59:45;;;;;;;102.80;77.40;;;;;;;2.10;100.00;98250.20;105441;1299;59865;-74
2022/12/09 02:02:15;;;;;;;112.00;82.70;;;;;;;2.10;100.00;98254.05;105445;1297;59834;-73
2022/12/09 02:04:44;;;;;;;104.40;78.40;;;;;;;2.10;100.00;98253.52;105468;1297;68030;-74
2022/12/09 02:07:12;;;;;;;109.30;82.20;;;;;;;2.10;100.00;98250.23;105387;1296;60055;-72
2022/12/09 02:09:39;;;;;;;108.60;81.90;;;;;;;2.11;100.00;98252.25;105229;1300;72661;-74
2022/12/09 02:12:15;;;;;;;113.10;86.70;;;;;;;2.12;100.00;98247.65;105432;1303;60239;-73
2022/12/09 02:14:57;;;;;;;109.80;86.20;;;;;;;2.12;100.00;98244.52;105424;1298;60327;-72
2022/12/09 02:17:30;;;;;;;108.50;83.50;;;;;;;2.11;100.00;98244.91;105409;1301;67916;-72
2022/12/09 02:20:18;;;;;;;107.90;83.90;;;;;;;2.11;100.00;98244.39;105432;1297;59815;-73
2022/12/09 02:22:53;;;;;;;106.50;77.90;;;;;;;2.10;100.00;98241.97;105465;1304;65199;-73
2022/12/09 02:25:45;;;;;;;97.20;69.90;;;;;;;2.09;100.00;98243.60;105409;1297;59818;-73
2022/12/09 02:28:29;;;;;;;95.30;68.90;;;;;;;2.08;100.00;98242.59;105329;1303;59754;-73
2022/12/09 02:31:17;;;;;;;90.50;67.90;;;;;;;2.09;100.00;98243.08;105416;1297;68252;-73
2022/12/09 02:34:05;;;;;;;81.80;61.70;;;;;;;2.08;100.00;98240.14;105924;1287;61310;-74
2022/12/09 02:36:41;;;;;;;85.30;63.90;;;;;;;2.08;100.00;98235.77;105913;1289;64015;-74
2022/12/09 02:39:09;;;;;;;87.40;65.60;;;;;;;2.07;100.00;98239.48;105901;1283;59827;-74
2022/12/09 02:41:40;;;;;;;88.60;67.00;;;;;;;2.06;100.00;98237.07;105691;1293;59735;-73
2022/12/09 02:44:11;;;;;;;78.90;57.50;;;;;;;2.04;100.00;98233.15;105927;1289;67904;-74
2022/12/09 02:46:40;;;;;;;78.00;56.20;;;;;;;2.02;100.00;98234.62;105763;1292;59847;-73
2022/12/09 02:49:07;;;;;;;82.70;56.30;;;;;;;2.01;100.00;98233.08;105188;1289;1002155;-73
2022/12/09 02:51:36;;;;;;;70.90;52.80;;;;;;;2.02;100.00;98229.73;105662;1291;59756;-73
2022/12/09 02:54:08;;;;;;;71.10;52.10;;;;;;;2.01;100.00;98230.46;105926;1283;59783;-73
2022/12/09 02:56:34;;;;;;;65.90;46.10;;;;;;;2.02;100.00;98231.66;105923;1291;66713;-73
2022/12/09 02:59:00;;;;;;;72.60;51.60;;;;;;;2.02;100.00;98231.67;105909;1291;60337;-74
2022/12/09 03:01:39;;;;;;;77.00;52.70;;;;;;;2.01;100.00;98233.29;105753;1290;59898;-74
2022/12/09 03:04:07;;;;;;;72.30;51.30;;;;;;;2.00;100.00;98231.21;105953;1291;59712;-73
2022/12/09 03:06:41;;;;;;;71.50;50.80;;;;;;;1.99;100.00;98231.92;105902;1289;59548;-73
2022/12/09 03:09:11;;;;;;;74.00;50.60;;;;;;;2.00;100.00;98234.73;105922;1292;67836;-73
2022/12/09 03:11:38;;;;;;;76.90;51.50;;;;;;;2.00;100.00;98231.56;105932;1289;68526;-73
2022/12/09 03:14:12;;;;;;;73.00;51.80;;;;;;;2.01;100.00;98231.14;105922;1295;73784;-74
2022/12/09 03:16:45;;;;;;;71.30;51.30;;;;;;;2.01;100.00;98232.39;105921;1298;60070;-75
2022/12/09 03:19:26;;;;;;;72.80;49.90;;;;;;;2.02;100.00;98231.84;105920;1289;59674;-74
2022/12/09 03:21:56;;;;;;;73.50;51.20;;;;;;;1.99;100.00;98223.20;105921;1283;66868;-75
2022/12/09 03:24:31;;;;;;;70.00;50.60;;;;;;;1.96;100.00;98218.92;105666;1286;69014;-74
2022/12/09 03:27:05;;;;;;;76.80;51.30;;;;;;;1.94;100.00;98220.25;105949;1291;64075;-74
2022/12/09 03:29:36;;;;;;;70.10;50.90;;;;;;;1.90;100.00;98218.54;105775;1297;59728;-74
2022/12/09 03:32:01;;;;;;;;;;;;;;;1.85;100.00;98218.23;105923;1291;60103;-73
2022/12/09 03:34:31;;;;;;;73.50;54.40;;;;;;;1.82;100.00;98214.51;105915;1295;59884;-74
2022/12/09 03:37:01;;;;;;;77.00;57.90;;;;;;;1.82;100.00;98211.72;105900;1290;61121;-73
2022/12/09 03:39:33;;;;;;;77.70;57.90;;;;;;;1.82;100.00;98213.46;105919;1292;64842;-73
2022/12/09 03:42:04;;;;;;;76.50;57.50;;;;;;;1.81;100.00;98215.76;105768;1293;59886;-74
2022/12/09 03:44:41;;;;;;;76.10;57.30;;;;;;;1.80;100.00;98216.36;105932;1291;59704;-73
2022/12/09 03:47:08;;;;;;;83.60;59.90;;;;;;;1.80;100.00;98216.35;105894;1292;68010;-73
2022/12/09 03:49:37;;;;;;;82.40;59.10;;;;;;;1.81;100.00;98216.27;105921;1292;69777;-74
2022/12/09 03:52:32;;;;;;;83.10;60.90;;;;;;;1.81;100.00;98219.97;105639;1291;64202;-74
2022/12/09 03:55:06;;;;;;;82.30;62.10;;;;;;;1.81;100.00;98221.04;105898;1290;59825;-73
2022/12/09 03:57:37;;;;;;;86.20;64.40;;;;;;;1.82;100.00;98221.86;105921;1290;59724;-73
2022/12/09 04:00:04;;;;;;;95.00;67.30;;;;;;;1.82;100.00;98220.29;105910;1297;66798;-73
2022/12/09 04:02:30;;;;;;;94.00;72.40;;;;;;;1.82;100.00;98217.48;105503;1297;67559;-73
2022/12/09 04:04:56;;;;;;;93.70;69.50;;;;;;;1.83;100.00;98217.76;105926;1291;59647;-73
2022/12/09 04:07:23;;;;;;;96.20;72.80;;;;;;;1.83;100.00;98221.27;105909;1291;59743;-72
2022/12/09 04:09:48;;;;;;;92.60;69.10;;;;;;;1.82;100.00;98210.48;105944;1290;59616;-73
2022/12/09 04:12:14;;;;;;;87.70;69.20;;;;;;;1.82;100.00;98209.94;105929;1291;59812;-73
2022/12/09 04:14:40;;;;;;;95.60;69.80;;;;;;;1.82;100.00;98212.77;105938;1290;59768;-73
2022/12/09 04:17:06;;;;;;;84.40;64.30;;;;;;;1.79;100.00;98211.98;105935;1292;59875;-74
2022/12/09 04:19:32;;;;;;;92.40;67.80;;;;;;;1.77;100.00;98216.80;105737;1292;59774;-74
2022/12/09 04:21:59;;;;;;;87.80;66.80;;;;;;;1.77;100.00;98217.54;105888;1291;59748;-72
2022/12/09 04:24:25;;;;;;;94.40;68.60;;;;;;;1.78;100.00;98214.52;105928;1289;60063;-74
2022/12/09 04:26:50;;;;;;;83.30;60.10;;;;;;;1.78;100.00;98210.66;105957;1298;59672;-74
2022/12/09 04:29:16;;;;;;;83.30;62.50;;;;;;;1.76;100.00;98210.04;105887;1291;59848;-74
2022/12/09 04:31:42;;;;;;;84.20;62.10;;;;;;;1.74;100.00;98209.61;105950;1283;59716;-73
2022/12/09 04:34:08;;;;;;;84.50;62.90;;;;;;;1.72;100.00;98213.35;105896;1290;59922;-73
2022/12/09 04:36:35;;;;;;;84.60;61.70;;;;;;;1.72;100.00;98209.86;105894;1293;59734;-74
2022/12/09 04:39:01;;;;;;;75.00;55.70;;;;;;;1.70;100.00;98213.08;105886;1285;59710;-74
2022/12/09 04:41:26;;;;;;;83.10;59.90;;;;;;;1.67;100.00;98212.51;105909;1280;59883;-74
2022/12/09 04:43:53;;;;;;;78.70;58.00;;;;;;;1.65;100.00;98209.98;105917;1281;59795;-75
2022/12/09 04:46:19;;;;;;;81.50;59.50;;;;;;;1.62;100.00;98205.23;105921;1290;59756;-73
2022/12/09 04:48:45;;;;;;;81.90;59.80;;;;;;;1.58;100.00;98201.36;105904;1284;59770;-74
2022/12/09 04:51:15;;;;;;;77.70;58.10;;;;;;;1.55;100.00;98198.00;105916;1289;59857;-74
2022/12/09 04:53:41;;;;;;;75.10;52.30;;;;;;;1.51;100.00;98199.89;105892;1290;59781;-74
2022/12/09 04:56:11;;;;;;;74.60;54.40;;;;;;;1.46;100.00;98196.28;105911;1283;59737;-74
2022/12/09 04:58:38;;;;;;;;;;;;;;;1.44;100.00;98196.55;105809;1286;67917;-73
2022/12/09 05:01:09;;;;;;;75.40;52.10;;;;;;;1.43;100.00;98199.02;105910;1290;59728;-75
2022/12/09 05:03:35;;;;;;;77.80;55.20;;;;;;;1.43;100.00;98201.67;105898;1290;65097;-74
2022/12/09 05:06:04;;;;;;;71.10;51.80;;;;;;;1.42;100.00;98202.94;105755;1292;59744;-73
2022/12/09 05:08:30;;;;;;;73.20;51.30;;;;;;;1.39;100.00;98211.27;105932;1290;59715;-73
2022/12/09 05:10:55;;;;;;;75.70;54.10;;;;;;;1.36;100.00;98217.70;105921;1290;59805;-74
2022/12/09 05:13:22;;;;;;;77.10;51.20;;;;;;;1.35;100.00;98217.02;105896;1291;59612;-74
2022/12/09 05:15:48;;;;;;;73.20;52.80;;;;;;;1.33;100.00;98211.53;105903;1285;59741;-74
2022/12/09 05:18:13;;;;;;;79.30;53.60;;;;;;;1.30;100.00;98206.55;105892;1298;59752;-75
2022/12/09 05:20:41;;;;;;;75.80;53.20;;;;;;;1.30;100.00;98204.29;105193;1291;1002992;-75
2022/12/09 05:23:07;;;;;;;73.80;54.70;;;;;;;1.30;100.00;98204.83;105922;1291;59975;-75
2022/12/09 05:25:33;;;;;;;78.70;55.90;;;;;;;1.30;100.00;98205.38;105908;1288;60063;-75
2022/12/09 05:27:59;;;;;;;79.00;56.20;;;;;;;1.28;100.00;98208.55;105630;1293;59780;-74
2022/12/09 05:30:25;;;;;;;77.30;55.70;;;;;;;1.26;100.00;98209.91;105901;1291;59924;-73
2022/12/09 05:32:51;;;;;;;76.90;55.30;;;;;;;1.22;100.00;98205.14;105959;1291;59697;-74
2022/12/09 05:35:18;;;;;;;88.30;65.00;;;;;;;1.22;100.00;98200.06;105953;1290;59821;-74
2022/12/09 05:37:44;;;;;;;103.80;75.70;;;;;;;1.25;100.00;98199.62;105898;1290;70944;-74
2022/12/09 05:40:10;;;;;;;93.20;68.60;;;;;;;1.28;100.00;98205.07;105682;1293;59824;-74
2022/12/09 05:42:36;;;;;;;97.90;68.60;;;;;;;1.31;100.00;98211.27;105926;1289;59660;-74
2022/12/09 05:45:03;;;;;;;90.70;67.20;;;;;;;1.29;100.00;98208.16;105895;1291;59848;-74
2022/12/09 05:47:28;;;;;;;98.40;73.20;;;;;;;1.27;100.00;98206.36;105809;1292;60078;-73
2022/12/09 05:49:54;;;;;;;89.60;66.40;;;;;;;1.23;100.00;98213.16;105925;1283;59751;-74
2022/12/09 05:52:20;;;;;;;87.70;62.60;;;;;;;1.16;100.00;98212.59;105901;1289;59632;-75
2022/12/09 05:54:46;;;;;;;84.60;62.00;;;;;;;1.12;100.00;98218.17;105899;1290;59751;-74
2022/12/09 05:57:12;;;;;;;86.80;61.40;;;;;;;1.07;100.00;98220.63;105936;1290;59867;-74
2022/12/09 05:59:38;;;;;;;87.60;62.80;;;;;;;1.03;100.00;98224.98;105957;1285;59861;-75
2022/12/09 06:02:04;;;;;;;90.30;65.60;;;;;;;1.01;100.00;98218.45;105901;1283;59601;-75
2022/12/09 06:04:31;;;;;;;92.50;68.40;;;;;;;1.01;100.00;98216.73;105694;1291;60249;-75
2022/12/09 06:06:57;;;;;;;84.50;61.30;;;;;;;1.00;100.00;98220.06;105920;1290;60094;-74
2022/12/09 06:09:22;;;;;;;97.70;69.90;;;;;;;1.00;100.00;98219.89;105908;1290;60147;-75
2022/12/09 06:11:49;;;;;;;93.00;72.40;;;;;;;1.02;100.00;98219.45;105928;1285;60346;-75
2022/12/09 06:14:15;;;;;;;106.10;76.70;;;;;;;1.04;100.00;98215.54;105905;1283;60039;-74
2022/12/09 06:16:41;;;;;;;103.30;77.50;;;;;;;1.04;100.00;98217.96;105921;1290;59868;-74
2022/12/09 06:19:11;;;;;;;103.30;77.10;;;;;;;1.06;100.00;98223.16;105928;1290;59783;-75
2022/12/09 06:21:40;;;;;;;103.40;79.10;;;;;;;1.08;100.00;98220.61;105931;1284;59817;-74
2022/12/09 06:24:07;;;;;;;103.60;80.00;;;;;;;1.09;100.00;98215.30;105907;1290;71889;-74
2022/12/09 06:26:35;;;;;;;120.60;88.10;;;;;;;1.12;100.00;98216.79;105888;1290;59826;-74
2022/12/09 06:29:01;;;;;;;110.20;80.00;;;;;;;1.14;100.00;98218.27;105920;1287;60117;-74
2022/12/09 06:31:27;;;;;;;111.10;81.40;;;;;;;1.14;100.00;98214.27;105928;1283;59767;-74
2022/12/09 06:33:54;;;;;;;113.60;84.40;;;;;;;1.14;100.00;98210.77;105908;1284;59627;-74
2022/12/09 06:36:20;;;;;;;111.40;85.10;;;;;;;1.14;100.00;98208.45;105746;1284;59765;-73
2022/12/09 06:38:46;;;;;;;117.00;88.00;;;;;;;1.14;100.00;98207.59;105897;1291;59988;-74
2022/12/09 06:41:14;;;;;;;122.70;92.10;;;;;;;1.15;100.00;98204.61;105898;1291;59547;-73
2022/12/09 06:43:40;;;;;;;133.50;96.60;;;;;;;1.15;100.00;98208.44;105930;1291;59755;-73
2022/12/09 06:46:21;;;;;;;122.80;90.60;;;;;;;1.13;100.00;98208.34;105905;1290;59775;-74
2022/12/09 06:48:48;;;;;;;119.50;86.90;;;;;;;1.11;100.00;98207.01;105971;1284;65276;-74
2022/12/09 06:51:15;;;;;;;128.20;93.50;;;;;;;1.09;100.00;98207.25;105904;1291;59827;-74
2022/12/09 06:53:42;;;;;;;230.00;172.60;;;;;;;1.08;100.00;98203.46;105907;1285;59895;-73
2022/12/09 06:56:10;;;;;;;160.10;122.50;;;;;;;1.10;100.00;98205.82;105895;1283;60261;-73
2022/12/09 06:58:36;;;;;;;172.70;128.60;;;;;;;1.12;100.00;98207.00;105916;1290;60087;-74
2022/12/09 07:01:04;;;;;;;175.70;135.20;;;;;;;1.12;100.00;98208.37;105894;1291;59812;-74
2022/12/09 07:03:30;;;;;;;145.60;111.50;;;;;;;1.13;100.00;98200.15;105889;1290;60029;-74
2022/12/09 07:05:56;;;;;;;130.20;96.50;;;;;;;1.15;100.00;98187.81;105724;1290;59768;-75
2022/12/09 07:08:22;;;;;;;110.90;81.50;;;;;;;1.16;100.00;98181.98;105916;1290;59821;-74
2022/12/09 07:10:48;;;;;;;113.80;85.30;;;;;;;1.16;100.00;98181.63;105919;1290;60392;-73
2022/12/09 07:13:14;;;;;;;116.80;84.20;;;;;;;1.15;100.00;98180.79;105648;1290;59830;-73
2022/12/09 07:15:40;;;;;;;116.60;88.20;;;;;;;1.13;100.00;98180.17;105917;1297;59807;-73
2022/12/09 07:18:06;;;;;;;116.00;84.40;;;;;;;1.11;100.00;98178.34;105920;1290;59756;-75
2022/12/09 07:20:32;;;;;;;122.90;85.50;;;;;;;1.09;100.00;98171.04;105787;1291;60073;-73
2022/12/09 07:22:59;;;;;;;131.90;91.30;;;;;;;1.13;100.00;98178.95;105923;1284;59880;-74
2022/12/09 07:25:25;;;;;;;134.60;96.70;;;;;;;1.14;100.00;98181.52;105668;1294;59801;-74
2022/12/09 07:27:51;;;;;;;140.70;99.70;;;;;;;1.17;100.00;98172.34;105755;1290;59829;-74
2022/12/09 07:30:17;;;;;;;141.50;102.20;;;;;;;1.17;100.00;98166.54;105983;1290;59902;-75
2022/12/09 07:32:43;;;;;;;144.00;102.50;;;;;;;1.16;100.00;98164.48;105649;1294;67317;-72
2022/12/09 07:35:10;;;;;;;153.50;107.70;;;;;;;1.13;100.00;98169.17;105664;1293;62823;-74
2022/12/09 07:37:37;;;;;;;139.70;102.10;;;;;;;1.08;100.00;98169.34;105903;1291;59779;-73
2022/12/09 07:40:04;;;;;;;145.40;104.00;;;;;;;1.05;100.00;98177.03;105644;1293;60115;-74
2022/12/09 07:42:30;;;;;;;141.20;103.30;;;;;;;1.02;100.00;98181.52;105650;1294;67711;-73
2022/12/09 07:44:56;;;;;;;142.00;103.00;;;;;;;0.99;100.00;98186.20;105656;1294;59938;-73
2022/12/09 07:47:21;;;;;;;136.00;97.80;;;;;;;0.96;100.00;98186.30;105633;1294;59950;-74
2022/12/09 07:49:49;;;;;;;141.00;103.60;;;;;;;0.94;100.00;98187.09;105626;1278;59645;-74
2022/12/09 07:52:15;;;;;;;140.00;102.80;;;;;;;0.90;100.00;98192.83;105626;1295;59737;-74
2022/12/09 07:54:41;;;;;;;141.90;105.60;;;;;;;0.87;100.00;98195.75;105621;1294;59953;-73
2022/12/09 07:57:09;;;;;;;151.90;109.50;;;;;;;0.83;100.00;98194.16;105626;1287;60036;-74
2022/12/09 07:59:35;;;;;;;142.50;104.40;;;;;;;0.79;100.00;98194.31;105573;1296;59791;-74
2022/12/09 08:02:02;;;;;;;153.10;113.20;;;;;;;0.76;100.00;98196.73;105628;1294;59789;-74
2022/12/09 08:04:30;;;;;;;162.90;120.60;;;;;;;0.72;100.00;98196.38;105657;1288;60000;-74
2022/12/09 08:06:57;;;;;;;164.30;126.10;;;;;;;0.68;100.00;98191.45;105642;1287;68077;-76
2022/12/09 08:09:23;;;;;;;162.20;126.10;;;;;;;0.67;100.00;98192.05;105639;1294;67370;-73
2022/12/09 08:11:49;;;;;;;167.70;122.00;;;;;;;0.64;100.00;98195.11;105615;1288;59889;-73
2022/12/09 08:14:15;;;;;;;165.10;123.80;;;;;;;0.62;100.00;98204.08;105627;1284;59799;-74
2022/12/09 08:16:42;;;;;;;158.70;117.10;;;;;;;0.61;100.00;98208.16;105633;1301;59758;-74
2022/12/09 08:19:08;;;;;;;157.10;118.40;;;;;;;0.61;100.00;98209.02;105656;1294;59895;-73
2022/12/09 08:21:36;;;;;;;164.10;124.80;;;;;;;0.65;100.00;98205.58;105737;1290;59762;-74
2022/12/09 08:24:04;;;;;;;166.30;125.80;;;;;;;0.72;100.00;98208.60;105705;1290;59832;-73
2022/12/09 08:26:31;;;;;;;179.90;133.30;;;;;;;0.82;100.00;98208.71;105901;1297;59676;-73
2022/12/09 08:28:57;;;;;;;172.00;133.40;;;;;;;0.94;100.00;98202.28;105923;1284;59617;-74
2022/12/09 08:31:25;;;;;;;215.30;162.30;;;;;;;1.06;100.00;98213.68;105924;1288;59895;-73
2022/12/09 08:33:52;;;;;;;191.60;149.30;;;;;;;1.20;100.00;98203.17;105542;1288;59945;-75
2022/12/09 08:36:20;;;;;;;188.40;142.70;;;;;;;1.34;100.00;98197.85;105880;1290;72982;-74
2022/12/09 08:38:47;;;;;;;176.00;135.80;;;;;;;1.46;100.00;98205.38;105777;1290;60107;-74
2022/12/09 08:41:19;;;;;;;189.30;146.00;;;;;;;1.58;100.00;98197.52;105905;1290;59828;-74
2022/12/09 08:43:46;;;;;;;190.50;142.70;;;;;;;1.72;100.00;98199.34;105912;1290;75251;-74
2022/12/09 08:46:13;;;;;;;179.20;133.20;;;;;;;1.81;100.00;98195.11;105930;1284;59705;-74
2022/12/09 08:48:40;;;;;;;162.50;125.00;;;;;;;1.88;100.00;98191.83;105906;1283;65283;-73
2022/12/09 08:51:08;;;;;;;163.00;124.10;;;;;;;1.99;100.00;98196.02;105926;1290;59784;-73
2022/12/09 08:53:34;;;;;;;156.50;118.40;;;;;;;2.09;100.00;98189.46;105939;1291;59733;-73
2022/12/09 08:56:08;;;;;;;148.50;116.50;;;;;;;2.16;100.00;98185.98;105917;1283;60113;-72
2022/12/09 08:58:34;;;;;;;144.00;111.80;;;;;;;2.21;100.00;98187.52;105960;1291;61192;-73
2022/12/09 09:01:00;;;;;;;148.20;112.60;;;;;;;2.24;100.00;98181.42;105889;1277;59899;-73
2022/12/09 09:03:25;;;;;;;147.00;112.00;;;;;;;2.28;100.00;98180.35;105942;1289;59728;-73
2022/12/09 09:05:52;;;;;;;141.00;106.60;;;;;;;2.33;100.00;98182.20;105925;1283;59776;-73
2022/12/09 09:08:18;;;;;;;138.70;107.00;;;;;;;2.38;100.00;98180.40;105916;1291;59785;-73
2022/12/09 09:10:43;;;;;;;135.60;103.80;;;;;;;2.45;100.00;98177.64;105929;1290;59831;-73
2022/12/09 09:13:10;;;;;;;143.10;102.50;;;;;;;2.57;100.00;98172.67;105930;1290;59803;-73
2022/12/09 09:15:38;;;;;;;133.30;101.20;;;;;;;2.67;100.00;98170.77;105929;1290;59647;-74
2022/12/09 09:18:03;;;;;;;137.30;97.10;;;;;;;2.78;100.00;98169.73;105922;1284;60058;-74
2022/12/09 09:20:29;;;;;;;140.20;102.80;;;;;;;2.90;100.00;98168.83;105944;1288;60800;-74
2022/12/09 09:22:55;;;;;;;137.90;99.00;;;;;;;3.01;100.00;98167.54;105932;1283;60123;-73
2022/12/09 09:25:21;;;;;;;131.90;95.20;;;;;;;3.12;100.00;98166.81;105955;1294;60064;-73
2022/12/09 09:27:47;;;;;;;135.20;95.80;;;;;;;3.22;100.00;98162.48;105924;1290;61435;-73
2022/12/09 09:30:13;;;;;;;156.00;97.40;;;;;;;3.27;100.00;98166.98;105925;1291;59772;-73
2022/12/09 09:32:39;;;;;;;140.00;94.70;;;;;;;3.34;100.00;98167.12;105917;1283;59709;-73
2022/12/09 09:35:05;;;;;;;127.70;91.00;;;;;;;3.42;100.00;98164.45;105923;1290;60114;-73
2022/12/09 09:37:31;;;;;;;116.50;83.90;;;;;;;3.48;100.00;98163.94;105907;1290;59836;-73
2022/12/09 09:39:57;;;;;;;120.40;84.50;;;;;;;3.53;100.00;98170.02;105928;1290;59758;-73
2022/12/09 09:42:32;;;;;;;112.00;80.30;;;;;;;3.58;100.00;98168.88;105930;1290;60017;-74
2022/12/09 09:45:05;;;;;;;104.20;74.00;;;;;;;3.67;100.00;98165.94;105926;1291;60905;-74
2022/12/09 09:47:34;;;;;;;90.80;66.50;;;;;;;3.81;100.00;98157.85;105914;1290;65048;-72
2022/12/09 09:50:17;;;;;;;102.00;71.00;;;;;;;3.95;100.00;98149.73;105908;1291;59757;-73
2022/12/09 09:52:44;;;;;;;98.00;72.90;;;;;;;4.05;100.00;98144.60;105905;1283;59830;-73
2022/12/09 09:55:15;;;;;;;82.00;62.80;;;;;;;4.13;100.00;98141.35;105820;1290;66816;-73
2022/12/09 09:57:49;;;;;;;85.40;66.60;;;;;;;4.21;100.00;98132.98;105652;1290;61467;-72
2022/12/09 10:00:24;;;;;;;87.90;67.10;;;;;;;4.37;100.00;98124.55;105896;1284;72915;-73
2022/12/09 10:02:56;;;;;;;72.60;56.40;;;;;;;4.45;100.00;98124.83;105739;1292;59778;-73
2022/12/09 10:05:44;;;;;;;73.50;57.10;;;;;;;4.43;100.00;98116.47;105940;1291;59654;-73
2022/12/09 10:08:54;;;;;;;70.00;54.70;;;;;;;4.42;100.00;98108.63;105937;1290;67814;-73
2022/12/09 10:11:46;;;;;;;61.10;48.70;;;;;;;4.43;100.00;98108.25;105929;1290;60064;-73
2022/12/09 10:14:37;;;;;;;64.60;49.70;;;;;;;4.48;100.00;98105.81;105268;1300;65335;-73
2022/12/09 10:17:09;;;;;;;58.00;46.10;;;;;;;4.60;100.00;98105.36;105244;1306;59890;-73
2022/12/09 10:19:47;;;;;;;57.40;45.80;;;;;;;4.69;100.00;98101.52;105352;1297;60364;-73
2022/12/09 10:22:27;;;;;;;42.70;33.40;;;;;;;4.77;100.00;98100.51;105420;1297;67966;-73
2022/12/09 10:24:58;;;;;;;32.60;26.50;;;;;;;4.85;100.00;98105.33;105430;1297;61397;-72
2022/12/09 10:27:37;;;;;;;30.90;25.70;;;;;;;4.86;100.00;98105.78;105289;1304;62751;-73
2022/12/09 10:30:09;;;;;;;34.60;30.10;;;;;;;4.90;100.00;98105.02;105437;1296;59717;-73
2022/12/09 10:32:37;;;;;;;37.90;29.00;;;;;;;4.99;100.00;98099.54;105367;1300;59880;-73
2022/12/09 10:35:23;;;;;;;35.20;28.70;;;;;;;5.07;100.00;98087.66;105427;1290;67832;-73
2022/12/09 10:37:52;;;;;;;32.10;25.70;;;;;;;5.13;100.00;98083.08;105418;1291;60856;-73
2022/12/09 10:40:48;;;;;;;34.60;27.50;;;;;;;5.15;100.00;98080.64;105438;1297;65341;-73
2022/12/09 10:43:35;;;;;;;36.60;30.00;;;;;;;5.22;100.00;98080.06;105309;1282;59787;-73
2022/12/09 10:46:05;;;;;;;41.80;33.70;;;;;;;5.28;100.00;98088.35;105320;1288;191279;-73
2022/12/09 10:48:43;;;;;;;37.60;32.10;;;;;;;5.30;100.00;98095.11;105451;1289;68046;-73
2022/12/09 10:51:17;;;;;;;38.90;33.90;;;;;;;5.31;100.00;98089.59;105571;1297;61210;-74
2022/12/09 10:53:49;;;;;;;43.00;32.90;;;;;;;5.31;100.00;98084.98;105905;1290;72218;-73
2022/12/09 10:57:02;;;;;;;42.50;33.40;;;;;;;5.30;100.00;98088.73;105921;1291;59655;-73
2022/12/09 10:59:29;;;;;;;41.70;32.50;;;;;;;5.34;100.00;98088.52;105304;1297;59849;-74
2022/12/09 11:01:59;;;;;;;40.70;33.60;;;;;;;5.44;100.00;98090.86;105341;1298;67596;-73
2022/12/09 11:04:27;;;;;;;37.60;31.60;;;;;;;5.55;100.00;98088.66;105430;1297;61105;-82
2022/12/09 11:06:58;;;;;;;42.40;34.90;;;;;;;5.60;100.00;98089.59;105362;1301;62442;-75
2022/12/09 11:09:36;;;;;;;34.00;29.40;;;;;;;5.58;100.00;98086.55;105413;1296;59750;-75
2022/12/09 11:12:25;;;;;;;43.90;37.70;;;;;;;5.57;100.00;98079.02;105425;1298;60716;-75
2022/12/09 11:14:55;;;;;;;46.00;36.20;;;;;;;5.59;100.00;98081.38;105443;1297;67896;-75